CST,Max TemperatureF,Mean TemperatureF,Min TemperatureF,Max Dew PointF,MeanDew PointF,Min DewpointF,Max Humidity, Mean Humidity, Min Humidity, Max Sea Level PressureIn, Mean Sea Level PressureIn, Min Sea Level PressureIn, Max VisibilityMiles, Mean VisibilityMiles, Min VisibilityMiles, Max Wind SpeedMPH, Mean Wind SpeedMPH, Max Gust SpeedMPH,PrecipitationIn, CloudCover, Events, WindDirDegrees
2012-11-1,48,39,30,36,29,21,87,63,43,30.03,29.97,29.92,10,10,6,18,8,25,0.00,3,,335
2012-11-2,42,34,26,27,24,19,80,67,49,30.14,30.08,30.04,10,10,10,12,6,,0.00,2,,63
2012-11-3,46,38,30,34,27,25,86,63,43,30.20,30.17,30.13,10,10,10,6,1,,0.03,7,,43
2012-11-4,48,42,35,37,35,32,93,80,58,30.19,30.13,30.08,10,9,7,12,6,,0.05,8,,137
2012-11-5,42,40,39,37,37,36,93,87,81,30.16,30.09,29.94,9,5,2,15,6,21,0.10,8,,155
2012-11-6,44,42,39,37,35,34,93,76,66,29.99,29.89,29.81,10,9,3,25,17,33,0.09,7,,293
2012-11-7,46,40,33,36,32,28,93,74,50,30.13,30.07,29.99,10,10,10,14,7,,0.00,4,,318
2012-11-8,60,46,33,37,33,28,87,67,36,30.03,29.94,29.90,10,10,7,20,12,25,0.00,0,,179
2012-11-9,55,42,30,39,35,28,93,75,54,29.96,29.89,29.79,10,8,3,17,5,23,0.00,3,,93
2012-11-10,75,62,48,55,48,39,87,65,36,29.79,29.58,29.46,10,9,5,26,18,33,0.00,5,,160
2012-11-11,,,,,,,,,,,,,,,,,,,,,,
2012-11-12,,,,,,,,,,,,,,,,,,,,,,
2012-11-13,,,,,,,,,,,,,,,,,,,,,,
2012-11-14,,,,,,,,,,,,,,,,,,,,,,
2012-11-15,,,,,,,,,,,,,,,,,,,,,,
2012-11-16,46,40,33,27,22,18,75,52,32,30.43,30.33,30.28,10,10,10,14,9,,0.00,0,,166
2012-11-17,57,44,32,34,30,27,81,58,36,30.29,30.22,30.15,10,10,10,24,15,31,0.00,2,,168
2012-11-18,60,50,39,32,30,28,65,47,31,30.16,30.09,30.04,10,10,10,23,18,28,0.00,2,,170
2012-11-19,59,50,41,37,35,32,81,58,42,30.09,30.03,29.99,10,10,3,16,10,,0.00,2,,184
2012-11-20,57,42,28,36,29,25,93,65,31,30.18,30.12,30.04,10,8,3,14,7,,0.00,0,,253
2012-11-21,71,56,42,41,36,30,70,51,27,30.04,29.89,29.72,10,10,10,25,15,31,0.00,0,,193
2012-11-22,55,44,32,43,35,19,81,65,47,30.07,29.81,29.65,10,10,10,31,19,41,0.00,4,,269
2012-11-23,28,22,14,16,11,9,79,62,47,30.37,30.29,30.08,10,10,10,34,24,45,0.00,3,,315
2012-11-24,32,21,10,18,12,7,92,68,44,30.33,30.06,29.78,10,10,10,18,8,22,0.00,4,,185
2012-11-25,35,29,23,23,19,16,80,68,52,30.15,29.98,29.81,10,10,9,20,11,23,0.00,4,,323
2012-11-26,26,18,10,14,6,1,79,60,43,30.40,30.33,30.16,10,10,10,18,9,23,0.00,2,,313
2012-11-27,37,24,12,21,16,7,80,68,52,30.33,30.20,30.08,10,10,10,21,10,26,0.00,1,,228
2012-11-28,41,26,12,23,18,9,93,72,48,30.34,30.22,30.05,10,10,5,13,6,17,0.00,0,,193
2012-11-29,44,32,19,27,22,12,93,69,49,30.05,30.00,29.96,10,10,5,10,6,,0.00,0,,85
2012-11-30,42,33,24,32,27,19,87,78,65,30.11,30.04,29.97,10,6,2,15,7,18,0.00,1,,80